tititudorancea.com
Station Historical Data
Daily Summary for January 17, 2018 Units:  Metric    English   Both
« Previous Day
Next Day »
Daily Weekly Monthly Yearly Custom
  High: Low: Average:
Temperature: -17.8 °C 11.5 °C 23 °C
Dew Point: -17.8 °C -13.8 °C 2.1 °C
Humidity: Humidity % 4 % 40 %
Wind Speed: 0 km/h 0 km/h 4.7 km/h
Wind Gust: 0 km/h - -
Wind:- - SW
Pressure: 0 hPa 1012.1 hPa -
Precipitation: 0 mm    
Historical Graphs
 
 
Ararat weather Find more about Weather in Ararat, AU


 



 


Tabular Data for January 17, 2018
Time Temperature Dew Point Pressure Wind Wind Speed Wind Gust Humidity Rainfall Rate (Hourly)
-17.8 °C -17.8 °C 0 hPa Calm     Humidity % 0 mm
00:19 15.3 °C 11.1 °C 1017.8 hPa SSE 5 km/h 9.3 km/h 76 % 0 mm
00:24 15.2 °C 11 °C 1017.8 hPa North 6.3 km/h 9.3 km/h 76 % 0 mm
00:30 15.1 °C 11.1 °C 1017.8 hPa North 6.8 km/h 9.3 km/h 77 % 0 mm
00:38 14.9 °C 10.9 °C 1017.8 hPa North 6.4 km/h 11.1 km/h 77 % 0 mm
00:45 14.8 °C 11 °C 1017.8 hPa North 4.8 km/h 9.3 km/h 78 % 0 mm
00:53 14.6 °C 10.9 °C 1017.8 hPa SSE 7.2 km/h 7.4 km/h 79 % 0 mm
01:34 14.3 °C 11.1 °C 1017.5 hPa SSE 5.5 km/h 9.3 km/h 81 % 0 mm
01:43 14.3 °C 11.3 °C 1017.5 hPa North 7.6 km/h 12.9 km/h 82 % 0 mm
02:01 14.4 °C 11.3 °C 1017.2 hPa SSE 9 km/h 13 km/h 82 % 0 mm
02:07 14.3 °C 11.3 °C 1017.2 hPa SSE 8.5 km/h 11.1 km/h 82 % 0 mm
02:33 14.1 °C 11.2 °C 1016.5 hPa SSE 6.6 km/h 7.4 km/h 83 % 0 mm
02:47 13.8 °C 11.1 °C 1016.5 hPa SSE 9 km/h 13 km/h 84 % 0 mm
02:53 13.8 °C 11.3 °C 1016.5 hPa North 6.9 km/h 9.3 km/h 85 % 0 mm
02:58 13.8 °C 11.3 °C 1016.5 hPa SSE 8.5 km/h 13 km/h 85 % 0 mm
03:15 13.8 °C 11.3 °C 1016.1 hPa South 7.7 km/h 14.8 km/h 85 % 0 mm
03:26 13.5 °C 11 °C 1016.1 hPa South 10.5 km/h 13 km/h 85 % 0 mm
03:51 13.4 °C 10.9 °C 1016.1 hPa South 4.7 km/h 8 km/h 85 % 0 mm
04:21 13.1 °C 10.4 °C 1016.1 hPa South 3.2 km/h 5.6 km/h 84 % 0 mm
04:26 13 °C 10.3 °C 1016.1 hPa South 0.2 km/h 5.6 km/h 84 % 0 mm
04:37 12.7 °C 10.2 °C 1016.1 hPa North 2.6 km/h 3.7 km/h 85 % 0 mm
04:43 12.6 °C 10.1 °C 1015.8 hPa North 2.4 km/h 5.6 km/h 85 % 0 mm
05:06 12.3 °C 10 °C 1015.8 hPa South 3.9 km/h 7.4 km/h 86 % 0 mm
05:23 11.9 °C 9.5 °C 1016.1 hPa South 1.1 km/h 3.2 km/h 85 % 0 mm
05:30 11.8 °C 9.3 °C 1016.1 hPa Calm     85 % 0 mm
06:20 11.7 °C 9.1 °C 1016.5 hPa South 5.6 km/h 7.4 km/h 84 % 0 mm
06:33 11.5 °C 8.7 °C 1016.5 hPa South 1 km/h 3.7 km/h 83 % 0 mm
06:46 11.5 °C 8.7 °C 1016.5 hPa South 4.2 km/h 5.6 km/h 83 % 0 mm
06:52 11.7 °C 8.9 °C 1016.5 hPa South 1 km/h 5.6 km/h 83 % 0 mm
07:01 11.8 °C 8.8 °C 1016.5 hPa South 4.2 km/h 6.4 km/h 82 % 0 mm
07:08 12.1 °C 9.1 °C 1016.5 hPa South 2.9 km/h 3.7 km/h 82 % 0 mm
07:21 12.6 °C 8.9 °C 1016.5 hPa Calm     78 % 0 mm
07:39 12.7 °C 9 °C 1016.8 hPa Calm     78 % 0 mm
08:24 16.4 °C 9.8 °C 1016.8 hPa South 0.3 km/h 1.9 km/h 65 % 0 mm
08:34 17.2 °C 9.4 °C 1016.8 hPa South 1.9 km/h 1.9 km/h 60 % 0 mm
08:41 17.5 °C 9.4 °C 1016.8 hPa Calm     59 % 0 mm
08:55 17.9 °C 9.1 °C 1016.8 hPa Calm     56 % 0 mm
09:16 20.3 °C 8.6 °C 1016.8 hPa Calm     47 % 0 mm
09:50 22.3 °C 6.1 °C 1016.8 hPa South 4.7 km/h 9.7 km/h 35 % 0 mm
10:07 23.9 °C 4.3 °C 1016.5 hPa ESE 8.7 km/h 13 km/h 28 % 0 mm
10:12 24.3 °C 0.6 °C 1016.5 hPa NNW 10 km/h 16.7 km/h 21 % 0 mm
10:18 24.6 °C 1.4 °C 1016.5 hPa North 8.2 km/h 11.3 km/h 22 % 0 mm
10:24 24.6 °C 0.2 °C 1016.5 hPa NW 6.9 km/h 11.1 km/h 20 % 0 mm
10:37 25.1 °C 0.6 °C 1016.5 hPa North 3.2 km/h 5.6 km/h 20 % 0 mm
10:43 25.4 °C 0.1 °C 1016.5 hPa NW 4.3 km/h 7.4 km/h 19 % 0 mm
11:02 26.6 °C 1.1 °C 1016.1 hPa NW 3.5 km/h 5.6 km/h 19 % 0 mm
11:24 26.8 °C 2 °C 1016.1 hPa NW 4.7 km/h 11.1 km/h 20 % 0 mm
12:01 28.7 °C -1.4 °C 1015.8 hPa NNW 2.9 km/h 7.4 km/h 14 % 0 mm
12:07 29.4 °C -0.9 °C 1015.8 hPa North 1.8 km/h 6.4 km/h 14 % 0 mm
12:31 30.4 °C -4.7 °C 1015.5 hPa NW 0.2 km/h 1.9 km/h 10 % 0 mm
12:38 31.1 °C -4.1 °C 1015.5 hPa NW 5.1 km/h 9.3 km/h 10 % 0 mm
12:45 30.4 °C -6 °C 1015.5 hPa NW 3.5 km/h 5.6 km/h 9 % 0 mm
12:57 30.3 °C -4.7 °C 1015.1 hPa North 2.1 km/h 5.6 km/h 10 % 0 mm
13:10 31 °C -4.2 °C 1014.8 hPa North 2.1 km/h 3.7 km/h 10 % 0 mm
13:22 31.1 °C -4.2 °C 1014.8 hPa ENE 3.7 km/h 6.4 km/h 10 % 0 mm
13:34 31.9 °C -4.9 °C 1014.4 hPa ENE 0.3 km/h 3.2 km/h 9 % 0 mm
13:59 32.1 °C -4.8 °C 1014.4 hPa NE 2.3 km/h 5.6 km/h 9 % 0 mm
14:26 32.6 °C -4.4 °C 1014.1 hPa East 9.7 km/h 14.5 km/h 9 % 0 mm
14:33 32.5 °C -4.5 °C 1013.8 hPa ENE 1.8 km/h 5.6 km/h 9 % 0 mm
14:57 33.7 °C -5.1 °C 1013.8 hPa NNE 5.8 km/h 9.7 km/h 8 % 0 mm
15:05 33.2 °C -7.3 °C 1013.8 hPa West 0.5 km/h 1.9 km/h 7 % 0 mm
15:21 34.4 °C -8.3 °C 1013.4 hPa NW 4.8 km/h 6.4 km/h 6 % 0 mm
15:28 34.2 °C -8.5 °C 1013.4 hPa NW 6.1 km/h 7.4 km/h 6 % 0 mm
15:36 34.1 °C -10.9 °C 1013.4 hPa North 7.7 km/h 9.7 km/h 5 % 0 mm
15:49 33.9 °C -11.1 °C 1013.1 hPa SW 3.5 km/h 9.3 km/h 5 % 0 mm
15:55 33.8 °C -11.2 °C 1013.1 hPa SW 5 km/h 5.6 km/h 5 % 0 mm
16:17 34.1 °C -10.9 °C 1013.1 hPa WNW 8.7 km/h 11.3 km/h 5 % 0 mm
16:24 34 °C -13.8 °C 1013.1 hPa NW 1.1 km/h 9.3 km/h 4 % 0 mm
16:45 33.8 °C -8.8 °C 1012.8 hPa WSW 5.6 km/h 5.6 km/h 6 % 0 mm
16:57 34.6 °C -13.4 °C 1012.8 hPa WSW 1.8 km/h 3.7 km/h 4 % 0 mm
17:09 35.2 °C -10.2 °C 1012.8 hPa North 6.4 km/h 7.4 km/h 5 % 0 mm
17:49 34.9 °C -10.4 °C 1012.1 hPa NE 3.2 km/h 5.6 km/h 5 % 0 mm
18:02 34.9 °C -8.1 °C 1012.1 hPa NE 2.6 km/h 5.6 km/h 6 % 0 mm
18:13 34.9 °C -8.1 °C 1012.1 hPa NNW 4.2 km/h 7.4 km/h 6 % 0 mm
18:58 34.5 °C -8.3 °C 1012.1 hPa West 6 km/h 9.3 km/h 6 % 0 mm
19:04 34.4 °C -4.6 °C 1012.1 hPa West 3.7 km/h 7.4 km/h 8 % 0 mm
19:16 34.3 °C -6.5 °C 1012.1 hPa West 1.9 km/h 5.6 km/h 7 % 0 mm
19:41 34.7 °C -8.2 °C 1012.1 hPa North 2.4 km/h 5.6 km/h 6 % 0 mm
19:46 34.5 °C -8.3 °C 1012.1 hPa Calm     6 % 0 mm
20:20 30.9 °C 3 °C 1012.8 hPa SSW 12.9 km/h 20.4 km/h 17 % 0 mm
20:43 28.7 °C 3.5 °C 1013.1 hPa South 11.9 km/h 18.5 km/h 20 % 0 mm
20:50 28.2 °C 3.8 °C 1013.1 hPa SSW 10.5 km/h 16.7 km/h 21 % 0 mm
21:09 27.2 °C 2.9 °C 1013.1 hPa SSW 7.4 km/h 9.3 km/h 21 % 0 mm
21:16 26.8 °C 3.3 °C 1013.1 hPa SSW 8.7 km/h 11.1 km/h 22 % 0 mm
21:22 26.7 °C 3.2 °C 1013.1 hPa SSW 6.3 km/h 11.1 km/h 22 % 0 mm
21:49 25.9 °C 3.2 °C 1013.4 hPa North 7.6 km/h 13 km/h 23 % 0 mm
22:20 25.1 °C 3.1 °C 1013.4 hPa SSW 10.3 km/h 16.7 km/h 24 % 0 mm
22:27 24.8 °C 3.4 °C 1013.4 hPa SSW 6.3 km/h 11.1 km/h 25 % 0 mm
22:34 24.4 °C 3.7 °C 1013.4 hPa SSW 6.1 km/h 8 km/h 26 % 0 mm
22:41 24.1 °C 3.9 °C 1013.4 hPa SSW 6.8 km/h 9.7 km/h 27 % 0 mm
22:53 23.6 °C 3.4 °C 1013.4 hPa SSW 6 km/h 7.4 km/h 27 % 0 mm
23:10 22.9 °C 3.9 °C 1013.4 hPa North 5.1 km/h 5.6 km/h 29 % 0 mm
23:42 21.5 °C 4.6 °C 1013.4 hPa SSW 1.3 km/h 3.2 km/h 33 % 0 mm
Ararat Weather
Compliments of Weather Underground - 1.25 mb
Click here to send mail.


ABOUT

Live weather data from Ararat, Victoria, Australia, 3377
Data uploaded from Cumulus every 5 minutes to Weather Underground.
This site then downloads the raw data for formatting and display.
Metric and imperial data can be displayed. Graphs and historical data available.
Includes Sun and Moon times and rain image live from BOM.

Check out Ararat Weather on Facebook, Twitter and Google +

Help support ongoing costs by checking out the ads





Follow @AraratWeather